Time;durP1;ratioP1;P1;durP2;ratioP2;P2;SDS_P1;SDS_P2;PMS_P1;PMS_P2;Temp;Humidity;BMP_temperature;BMP_pressure;BME280_temperature;BME280_humidity;BME280_pressure;Samples;Min_cycle;Max_cycle;Signal;HPM_P1;HPM_P2
2022/08/06 00:02:35;;;;;;;;;;;19.80;99.90;;;;;;5034511;28;20703;-65
2022/08/06 00:05:05;;;;;;;;;;;19.80;99.90;;;;;;5049118;28;20261;-66
2022/08/06 00:07:35;;;;;;;;;;;20.10;99.90;;;;;;5048213;28;20643;-64
2022/08/06 00:10:16;;;;;;;;;;;20.00;99.90;;;;;;5044545;28;20194;-64
2022/08/06 00:12:44;;;;;;;;;;;19.90;99.90;;;;;;5052489;28;20157;-64
2022/08/06 00:15:14;;;;;;;;;;;19.80;99.90;;;;;;5040363;28;25081;-64
2022/08/06 00:17:47;;;;;;;;;;;20.00;99.90;;;;;;5035478;28;20751;-64
2022/08/06 00:20:17;;;;;;;;;;;20.30;99.90;;;;;;5046575;28;20279;-65
2022/08/06 00:22:59;;;;;;;;;;;20.50;99.90;;;;;;5046400;28;20212;-65
2022/08/06 00:25:29;;;;;;;;;;;20.70;99.90;;;;;;5043649;28;20196;-64
2022/08/06 00:28:02;;;;;;;;;;;20.60;99.90;;;;;;5040074;28;20240;-64
2022/08/06 00:30:37;;;;;;;;;;;20.70;99.90;;;;;;5048123;28;20196;-65
2022/08/06 00:33:05;;;;;;;;;;;21.10;99.90;;;;;;5047393;28;20203;-64
2022/08/06 00:35:36;;;;;;;;;;;21.20;99.90;;;;;;5042508;28;20194;-64
2022/08/06 00:38:06;;;;;;;;;;;21.10;99.90;;;;;;5038967;28;20319;-69
2022/08/06 00:40:37;;;;;;;;;;;20.80;99.90;;;;;;5047555;28;20201;-65
2022/08/06 00:43:25;;;;;;;;;;;20.50;99.90;;;;;;5045709;28;20604;-65
2022/08/06 00:46:01;;;;;;;;;;;20.50;99.90;;;;;;5043253;28;20206;-65
2022/08/06 00:48:31;;;;;;;;;;;20.60;99.90;;;;;;5045403;28;20202;-65
2022/08/06 00:51:18;;;;;;;;;;;20.30;99.90;;;;;;5043151;28;20280;-64
2022/08/06 00:53:49;;;;;;;;;;;20.10;99.90;;;;;;5045367;28;20194;-64
2022/08/06 00:56:25;;;;;;;;;;;19.80;99.90;;;;;;5041491;28;20215;-65
2022/08/06 00:58:55;;;;;;;;;;;19.60;99.90;;;;;;5044012;28;20211;-66
2022/08/06 01:01:30;;;;;;;;;;;19.50;99.90;;;;;;5043225;28;20202;-64
2022/08/06 01:04:17;;;;;;;;;;;19.60;99.90;;;;;;5043340;28;20209;-64
2022/08/06 01:06:44;;;;;;;;;;;19.70;99.90;;;;;;5044728;28;20202;-64
2022/08/06 01:09:26;;;;;;;;;;;19.80;99.90;;;;;;5039355;28;20201;-64
2022/08/06 01:11:58;;;;;;;;;;;19.80;99.90;;;;;;5044301;28;20211;-65
2022/08/06 01:14:27;;;;;;;;;;;19.70;99.90;;;;;;5044621;28;20636;-64
2022/08/06 01:17:09;;;;;;;;;;;19.80;99.90;;;;;;5043490;28;20222;-64
2022/08/06 01:19:56;;;;;;;;;;;19.80;99.90;;;;;;5045045;28;20213;-64
2022/08/06 01:22:58;;;;;;;;;;;19.70;99.90;;;;;;5040600;28;20321;-64
2022/08/06 01:25:36;;;;;;;;;;;19.50;99.90;;;;;;5048233;28;20206;-64
2022/08/06 01:28:17;;;;;;;;;;;19.50;99.90;;;;;;5040962;28;20216;-64
2022/08/06 01:30:51;;;;;;;;;;;19.50;99.90;;;;;;5038671;28;20210;-66
2022/08/06 01:33:24;;;;;;;;;;;19.60;99.90;;;;;;5042320;28;20233;-64
2022/08/06 01:36:01;;;;;;;;;;;19.80;99.90;;;;;;5043806;28;20205;-63
2022/08/06 01:38:32;;;;;;;;;;;19.90;99.90;;;;;;5041303;28;20198;-65
2022/08/06 01:41:05;;;;;;;;;;;19.90;99.90;;;;;;5042969;28;20201;-64
2022/08/06 01:43:35;;;;;;;;;;;19.70;99.90;;;;;;5046682;28;20251;-64
2022/08/06 01:46:23;;;;;;;;;;;19.60;99.90;;;;;;5047290;28;20202;-64
2022/08/06 01:48:54;;;;;;;;;;;19.60;99.90;;;;;;5043532;28;20636;-67
2022/08/06 01:51:23;;;;;;;;;;;19.70;99.90;;;;;;5044907;28;20229;-64
2022/08/06 01:54:11;;;;;;;;;;;19.70;99.90;;;;;;5043094;28;20218;-65
2022/08/06 01:56:41;;;;;;;;;;;19.60;99.90;;;;;;5032193;28;20103;-64
2022/08/06 01:59:27;;;;;;;;;;;19.50;99.90;;;;;;5025827;28;20215;-64
2022/08/06 02:01:57;;;;;;;;;;;19.90;99.90;;;;;;5026492;28;20203;-64
2022/08/06 02:04:27;;;;;;;;;;;20.20;99.90;;;;;;5021617;28;20227;-64
2022/08/06 02:06:56;;;;;;;;;;;20.00;99.90;;;;;;5029848;28;20194;-66
2022/08/06 02:09:25;;;;;;;;;;;19.90;99.90;;;;;;5026387;28;20587;-65
2022/08/06 02:12:02;;;;;;;;;;;19.70;99.90;;;;;;5018150;28;20200;-66
2022/08/06 02:14:40;;;;;;;;;;;19.40;99.90;;;;;;5019967;28;20198;-66
2022/08/06 02:17:11;;;;;;;;;;;18.90;99.90;;;;;;5025714;28;20605;-68
2022/08/06 02:19:43;;;;;;;;;;;18.60;99.90;;;;;;5040025;28;20266;-67
2022/08/06 02:22:15;;;;;;;;;;;18.50;99.90;;;;;;5020863;28;20373;-66
2022/08/06 02:24:54;;;;;;;;;;;18.40;99.90;;;;;;5026402;28;20216;-66
2022/08/06 02:27:22;;;;;;;;;;;18.20;99.90;;;;;;5025844;28;20207;-65
2022/08/06 02:30:12;;;;;;;;;;;18.20;99.90;;;;;;5030877;28;20209;-67
2022/08/06 02:32:41;;;;;;;;;;;18.20;99.90;;;;;;5024855;28;20222;-65
2022/08/06 02:35:10;;;;;;;;;;;18.10;99.90;;;;;;5023981;28;20204;-67
2022/08/06 02:37:41;;;;;;;;;;;17.80;99.90;;;;;;5023743;28;20681;-67
2022/08/06 02:40:33;;;;;;;;;;;17.60;99.90;;;;;;5021776;28;20275;-65
2022/08/06 02:43:09;;;;;;;;;;;17.20;99.90;;;;;;5024549;28;20732;-66
2022/08/06 02:45:40;;;;;;;;;;;16.90;99.90;;;;;;5020828;28;20304;-67
2022/08/06 02:48:27;;;;;;;;;;;16.90;99.90;;;;;;5025801;28;20664;-65
2022/08/06 02:51:01;;;;;;;;;;;17.00;99.90;;;;;;5032188;28;20132;-66
2022/08/06 02:53:35;;;;;;;;;;;17.20;99.90;;;;;;5025937;28;20249;-66
2022/08/06 02:56:23;;;;;;;;;;;17.00;99.90;;;;;;5042005;28;20259;-66
2022/08/06 02:58:56;;;;;;;;;;;16.90;99.90;;;;;;5049993;28;20744;-63
2022/08/06 03:01:28;;;;;;;;;;;16.90;99.90;;;;;;5051040;28;20271;-64
2022/08/06 03:04:10;;;;;;;;;;;17.10;99.90;;;;;;5045445;28;20270;-66
2022/08/06 03:06:38;;;;;;;;;;;17.30;99.90;;;;;;5046309;28;20202;-64
2022/08/06 03:09:07;;;;;;;;;;;17.10;99.90;;;;;;5045986;28;20095;-64
2022/08/06 03:11:36;;;;;;;;;;;17.00;99.90;;;;;;5048096;28;20243;-65
2022/08/06 03:14:06;;;;;;;;;;;17.20;99.90;;;;;;5046646;28;20082;-64
2022/08/06 03:16:55;;;;;;;;;;;17.10;99.90;;;;;;5044942;28;20336;-64
2022/08/06 03:19:26;;;;;;;;;;;16.90;99.90;;;;;;5046215;28;20197;-65
2022/08/06 03:22:15;;;;;;;;;;;16.90;99.90;;;;;;5046489;28;20199;-66
2022/08/06 03:25:03;;;;;;;;;;;16.70;99.90;;;;;;5048004;28;20279;-65
2022/08/06 03:27:31;;;;;;;;;;;16.70;99.90;;;;;;5049070;28;20701;-65
2022/08/06 03:30:11;;;;;;;;;;;16.70;99.90;;;;;;5048213;28;20217;-64
2022/08/06 03:32:41;;;;;;;;;;;16.70;99.90;;;;;;5047232;28;20195;-65
2022/08/06 03:35:19;;;;;;;;;;;16.60;99.90;;;;;;5050772;28;20212;-66
2022/08/06 03:38:08;;;;;;;;;;;16.20;99.90;;;;;;5048111;28;20378;-66
2022/08/06 03:40:37;;;;;;;;;;;16.70;99.90;;;;;;5040481;28;20128;-66
2022/08/06 03:43:07;;;;;;;;;;;16.70;99.90;;;;;;5047051;28;21030;-64
2022/08/06 03:45:46;;;;;;;;;;;16.70;99.90;;;;;;5049784;28;25067;-64
2022/08/06 03:48:25;;;;;;;;;;;16.90;99.90;;;;;;5049894;28;20068;-68
2022/08/06 03:51:06;;;;;;;;;;;16.80;99.90;;;;;;5044527;28;20314;-67
2022/08/06 03:53:37;;;;;;;;;;;16.60;99.90;;;;;;5045418;28;20205;-65
2022/08/06 03:56:14;;;;;;;;;;;16.50;99.90;;;;;;5046095;28;20080;-67
2022/08/06 03:58:43;;;;;;;;;;;16.00;99.90;;;;;;5047813;28;25078;-65
2022/08/06 04:01:17;;;;;;;;;;;15.80;99.90;;;;;;5044666;28;20114;-64
2022/08/06 04:03:48;;;;;;;;;;;16.10;99.90;;;;;;5045377;28;21141;-64
2022/08/06 04:06:18;;;;;;;;;;;16.10;99.90;;;;;;5046613;28;20229;-65
2022/08/06 04:08:47;;;;;;;;;;;15.80;99.90;;;;;;5046153;28;20114;-65
2022/08/06 04:11:16;;;;;;;;;;;15.80;99.90;;;;;;5046458;28;20463;-65
2022/08/06 04:14:04;;;;;;;;;;;15.90;99.90;;;;;;5047611;28;20288;-66
2022/08/06 04:16:36;;;;;;;;;;;15.80;99.90;;;;;;5042716;28;20819;-64
2022/08/06 04:19:06;;;;;;;;;;;15.90;99.90;;;;;;5047479;28;25087;-67
2022/08/06 04:21:39;;;;;;;;;;;15.80;99.90;;;;;;5045444;28;20117;-65
2022/08/06 04:24:27;;;;;;;;;;;15.80;99.90;;;;;;5047246;28;20102;-65
2022/08/06 04:26:59;;;;;;;;;;;15.50;99.90;;;;;;5046990;28;20229;-66
2022/08/06 04:29:32;;;;;;;;;;;15.50;99.90;;;;;;5046490;28;20675;-63
2022/08/06 04:32:21;;;;;;;;;;;15.50;99.90;;;;;;5045227;28;20324;-64
2022/08/06 04:35:02;;;;;;;;;;;15.90;99.90;;;;;;5047172;28;20231;-68
2022/08/06 04:37:50;;;;;;;;;;;15.90;99.90;;;;;;5047764;28;20183;-64
2022/08/06 04:40:20;;;;;;;;;;;16.40;99.90;;;;;;5044477;28;20088;-64
2022/08/06 04:43:03;;;;;;;;;;;16.60;99.90;;;;;;5040854;28;20275;-64
2022/08/06 04:45:31;;;;;;;;;;;16.70;99.90;;;;;;5036329;28;20216;-67
2022/08/06 04:48:19;;;;;;;;;;;16.90;99.90;;;;;;5046682;28;20138;-66
2022/08/06 04:50:49;;;;;;;;;;;16.70;99.90;;;;;;5047934;28;20208;-64
2022/08/06 04:53:21;;;;;;;;;;;16.90;99.90;;;;;;5042636;28;20103;-65
2022/08/06 04:56:10;;;;;;;;;;;16.40;99.90;;;;;;5043973;28;25091;-64
2022/08/06 04:58:44;;;;;;;;;;;16.40;99.90;;;;;;5044979;28;20115;-66
2022/08/06 05:01:12;;;;;;;;;;;16.90;99.90;;;;;;5043503;28;20958;-66
2022/08/06 05:03:40;;;;;;;;;;;17.10;99.90;;;;;;5048633;28;20182;-66
2022/08/06 05:06:34;;;;;;;;;;;16.70;99.90;;;;;;5044547;28;20204;-66
2022/08/06 05:09:03;;;;;;;;;;;16.40;99.90;;;;;;5044561;28;20284;-69
2022/08/06 05:11:52;;;;;;;;;;;16.70;99.90;;;;;;5046062;28;20190;-66
2022/08/06 05:14:32;;;;;;;;;;;16.80;99.90;;;;;;5047812;28;20680;-67
2022/08/06 05:17:02;;;;;;;;;;;16.70;99.90;;;;;;5043196;28;20216;-68
2022/08/06 05:19:37;;;;;;;;;;;16.70;99.90;;;;;;5043132;28;20191;-65
2022/08/06 05:22:07;;;;;;;;;;;16.80;99.90;;;;;;5042924;28;20205;-65
2022/08/06 05:24:40;;;;;;;;;;;16.80;99.90;;;;;;5035884;28;20194;-66
2022/08/06 05:27:28;;;;;;;;;;;16.60;99.90;;;;;;5047084;28;20202;-65
2022/08/06 05:30:16;;;;;;;;;;;16.60;99.90;;;;;;5048627;28;20248;-66
2022/08/06 05:32:44;;;;;;;;;;;16.70;99.90;;;;;;5046187;28;20194;-66
2022/08/06 05:35:15;;;;;;;;;;;16.80;99.90;;;;;;5045635;28;20212;-66
2022/08/06 05:37:46;;;;;;;;;;;16.90;99.90;;;;;;5038551;28;20271;-65
2022/08/06 05:40:34;;;;;;;;;;;17.10;99.90;;;;;;5042895;28;20194;-66
2022/08/06 05:43:20;;;;;;;;;;;17.30;99.90;;;;;;5052177;28;20224;-66
2022/08/06 05:45:50;;;;;;;;;;;17.10;99.90;;;;;;5035833;28;20226;-65
2022/08/06 05:48:19;;;;;;;;;;;17.10;99.90;;;;;;5050375;28;20256;-65
2022/08/06 05:50:57;;;;;;;;;;;17.20;99.90;;;;;;5037329;28;20237;-66
2022/08/06 05:53:29;;;;;;;;;;;17.50;99.90;;;;;;5039199;28;20124;-64
2022/08/06 05:56:18;;;;;;;;;;;17.40;99.90;;;;;;5017688;28;20763;-64
2022/08/06 05:59:08;;;;;;;;;;;17.40;99.90;;;;;;5013911;28;20265;-64
2022/08/06 06:01:56;;;;;;;;;;;17.70;99.90;;;;;;5024921;28;20198;-64
2022/08/06 06:04:25;;;;;;;;;;;18.10;99.90;;;;;;5030934;28;20202;-64
2022/08/06 06:07:01;;;;;;;;;;;17.90;99.90;;;;;;5018317;28;20672;-63
2022/08/06 06:09:33;;;;;;;;;;;18.00;99.90;;;;;;5030830;28;20209;-63
2022/08/06 06:12:21;;;;;;;;;;;17.80;99.90;;;;;;5028146;28;20225;-64
2022/08/06 06:14:58;;;;;;;;;;;17.90;99.90;;;;;;5123814;23;20624;-65
2022/08/06 06:17:32;;;;;;;;;;;17.80;99.90;;;;;;5053722;28;20245;-65
2022/08/06 06:20:10;;;;;;;;;;;18.10;99.90;;;;;;5049540;28;20214;-65
2022/08/06 06:22:45;;;;;;;;;;;18.30;99.90;;;;;;5055930;28;20089;-65
2022/08/06 06:25:22;;;;;;;;;;;18.50;99.90;;;;;;5061864;28;20239;-65
2022/08/06 06:27:53;;;;;;;;;;;18.60;99.90;;;;;;5076458;28;20190;-65
2022/08/06 06:30:23;;;;;;;;;;;18.70;99.90;;;;;;5073949;28;20278;-65
2022/08/06 06:33:13;;;;;;;;;;;18.90;99.90;;;;;;5074049;28;20202;-66
2022/08/06 06:35:44;;;;;;;;;;;18.80;99.90;;;;;;5070207;28;20221;-65
2022/08/06 06:38:26;;;;;;;;;;;18.70;99.90;;;;;;5071439;28;20188;-65
2022/08/06 06:40:59;;;;;;;;;;;19.00;99.90;;;;;;5072220;28;20197;-66
2022/08/06 06:43:48;;;;;;;;;;;19.10;99.90;;;;;;5067763;28;20194;-68
2022/08/06 06:46:23;;;;;;;;;;;19.00;99.90;;;;;;5073214;28;20646;-66
2022/08/06 06:49:12;;;;;;;;;;;18.90;99.90;;;;;;5075318;28;20557;-66
2022/08/06 06:52:05;;;;;;;;;;;18.80;99.90;;;;;;5070833;28;20244;-65
2022/08/06 06:54:39;;;;;;;;;;;18.70;99.90;;;;;;5072423;28;20193;-66
2022/08/06 06:57:11;;;;;;;;;;;18.80;99.90;;;;;;5077212;28;20722;-67
2022/08/06 06:59:42;;;;;;;;;;;19.00;99.90;;;;;;5071952;28;20206;-66
2022/08/06 07:02:32;;;;;;;;;;;19.10;99.90;;;;;;5075326;28;20243;-66
2022/08/06 07:05:02;;;;;;;;;;;19.10;99.90;;;;;;5071842;28;20238;-65
2022/08/06 07:07:31;;;;;;;;;;;19.10;99.90;;;;;;5060181;28;20712;-65
2022/08/06 07:09:59;;;;;;;;;;;19.20;99.90;;;;;;5061359;28;20718;-65
2022/08/06 07:12:32;;;;;;;;;;;19.30;99.90;;;;;;5071548;28;20193;-68
2022/08/06 07:15:01;;;;;;;;;;;19.30;99.90;;;;;;5070816;28;20209;-65
2022/08/06 07:17:31;;;;;;;;;;;19.40;99.90;;;;;;5093879;28;20205;-66
2022/08/06 07:20:17;;;;;;;;;;;19.50;99.90;;;;;;5092062;28;20205;-65
2022/08/06 07:22:47;;;;;;;;;;;19.50;99.90;;;;;;5094351;28;20578;-66
2022/08/06 07:25:37;;;;;;;;;;;19.50;99.90;;;;;;5094885;28;20221;-66
2022/08/06 07:28:09;;;;;;;;;;;19.60;99.90;;;;;;5090436;28;20221;-67
2022/08/06 07:30:40;;;;;;;;;;;19.70;99.90;;;;;;5092325;28;20292;-66
2022/08/06 07:33:10;;;;;;;;;;;20.00;99.90;;;;;;5094334;28;20191;-66
2022/08/06 07:35:41;;;;;;;;;;;20.10;99.90;;;;;;5094832;28;20675;-65
2022/08/06 07:38:12;;;;;;;;;;;20.10;99.90;;;;;;5093293;28;20201;-64
2022/08/06 07:40:43;;;;;;;;;;;20.20;99.90;;;;;;5095173;28;20212;-65
2022/08/06 07:43:16;;;;;;;;;;;20.20;99.90;;;;;;5091243;28;20197;-67
2022/08/06 07:45:52;;;;;;;;;;;20.30;99.90;;;;;;5089441;28;20696;-67
2022/08/06 07:48:24;;;;;;;;;;;20.20;99.90;;;;;;5091064;28;20101;-65
2022/08/06 07:50:53;;;;;;;;;;;20.10;99.90;;;;;;5088238;28;20207;-65
2022/08/06 07:53:22;;;;;;;;;;;20.30;99.90;;;;;;5092540;28;20130;-65
2022/08/06 07:56:10;;;;;;;;;;;20.30;99.90;;;;;;5090827;28;20321;-65
2022/08/06 07:58:40;;;;;;;;;;;20.50;99.90;;;;;;5088418;28;20216;-66
2022/08/06 08:01:13;;;;;;;;;;;20.60;99.90;;;;;;5089632;28;20201;-64
2022/08/06 08:06:52;;;;;;;;;;;20.80;99.90;;;;;;5089326;28;20758;-65
2022/08/06 08:09:21;;;;;;;;;;;20.90;99.90;;;;;;5100306;28;20209;-65
2022/08/06 08:12:11;;;;;;;;;;;20.60;99.90;;;;;;5093198;28;20289;-65
2022/08/06 08:15:01;;;;;;;;;;;20.50;99.90;;;;;;5089702;28;20578;-65
2022/08/06 08:17:30;;;;;;;;;;;20.60;99.90;;;;;;5093131;28;20201;-65
2022/08/06 08:20:03;;;;;;;;;;;20.80;99.90;;;;;;5092730;28;20117;-65
2022/08/06 08:22:42;;;;;;;;;;;21.10;99.90;;;;;;5102310;28;20106;-65
2022/08/06 08:25:18;;;;;;;;;;;21.20;99.90;;;;;;5095106;28;25095;-65
2022/08/06 08:28:06;;;;;;;;;;;21.10;99.90;;;;;;5089181;28;20155;-65
2022/08/06 08:30:43;;;;;;;;;;;21.30;99.90;;;;;;5094043;28;20739;-65
2022/08/06 08:33:16;;;;;;;;;;;21.60;99.90;;;;;;5094642;28;20275;-65
2022/08/06 08:35:45;;;;;;;;;;;21.80;99.90;;;;;;5095640;28;20191;-65
2022/08/06 08:38:28;;;;;;;;;;;22.00;99.60;;;;;;5092547;28;25075;-65
2022/08/06 08:40:59;;;;;;;;;;;22.30;99.00;;;;;;5097300;28;20068;-65
2022/08/06 08:43:30;;;;;;;;;;;22.50;98.60;;;;;;5092683;28;20240;-65
2022/08/06 08:46:19;;;;;;;;;;;22.60;98.60;;;;;;5095506;28;20220;-65
2022/08/06 08:49:01;;;;;;;;;;;22.80;97.80;;;;;;5092620;28;20277;-65
2022/08/06 08:51:29;;;;;;;;;;;22.80;98.00;;;;;;5095304;28;20649;-66
2022/08/06 08:54:09;;;;;;;;;;;22.70;97.60;;;;;;5095687;28;20185;-66
2022/08/06 08:56:38;;;;;;;;;;;22.50;97.80;;;;;;5087482;28;20191;-65
2022/08/06 08:59:26;;;;;;;;;;;22.60;97.90;;;;;;5092449;28;20291;-65
2022/08/06 09:02:15;;;;;;;;;;;22.70;98.10;;;;;;5097953;28;20574;-65
2022/08/06 09:04:43;;;;;;;;;;;22.60;97.90;;;;;;5092303;28;20623;-65
2022/08/06 09:07:13;;;;;;;;;;;22.60;97.80;;;;;;5096779;28;20271;-65
2022/08/06 09:10:01;;;;;;;;;;;22.80;97.30;;;;;;5090582;28;20300;-65
2022/08/06 09:12:30;;;;;;;;;;;23.00;96.60;;;;;;5093459;28;20698;-65
2022/08/06 09:15:12;;;;;;;;;;;23.20;96.80;;;;;;5091390;28;20298;-65
2022/08/06 09:17:44;;;;;;;;;;;23.50;96.80;;;;;;5094604;28;20224;-66
2022/08/06 09:20:33;;;;;;;;;;;23.50;96.30;;;;;;5091929;28;20189;-65
2022/08/06 09:23:02;;;;;;;;;;;23.50;96.10;;;;;;5088523;28;20201;-65
2022/08/06 09:25:38;;;;;;;;;;;23.30;96.20;;;;;;5091826;28;20220;-66
2022/08/06 09:28:28;;;;;;;;;;;23.30;95.80;;;;;;5092402;28;20639;-65
2022/08/06 09:31:00;;;;;;;;;;;23.50;95.80;;;;;;5094137;28;20261;-66
2022/08/06 09:33:30;;;;;;;;;;;23.70;96.60;;;;;;5092325;28;20198;-66
2022/08/06 09:36:18;;;;;;;;;;;23.70;95.40;;;;;;5093251;28;20201;-65
2022/08/06 09:38:58;;;;;;;;;;;24.00;95.50;;;;;;5091599;28;20210;-66
2022/08/06 09:41:27;;;;;;;;;;;23.90;95.30;;;;;;5091747;28;20205;-66
2022/08/06 09:43:57;;;;;;;;;;;24.10;94.80;;;;;;5093983;28;20193;-65
2022/08/06 09:46:39;;;;;;;;;;;24.30;94.80;;;;;;5091159;28;20288;-65
2022/08/06 09:49:09;;;;;;;;;;;24.60;94.70;;;;;;5092467;28;20193;-66
2022/08/06 09:52:10;;;;;;;;;;;24.60;94.30;;;;;;5094522;28;20277;-65
2022/08/06 09:54:40;;;;;;;;;;;24.70;93.00;;;;;;5089852;28;20199;-66
2022/08/06 09:57:09;;;;;;;;;;;24.70;93.20;;;;;;5095760;28;20205;-66
2022/08/06 09:59:44;;;;;;;;;;;24.90;92.90;;;;;;5093553;28;20232;-65
2022/08/06 10:02:18;;;;;;;;;;;25.10;92.40;;;;;;5095829;28;20201;-66
2022/08/06 10:05:06;;;;;;;;;;;25.10;92.60;;;;;;5096138;28;20197;-66
2022/08/06 10:07:44;;;;;;;;;;;25.30;91.90;;;;;;5089192;28;20672;-66
2022/08/06 10:10:13;;;;;;;;;;;25.10;91.90;;;;;;5089430;28;20190;-66
2022/08/06 10:13:10;;;;;;;;;;;25.30;92.10;;;;;;5095535;28;20246;-66
2022/08/06 10:15:38;;;;;;;;;;;25.70;92.10;;;;;;5100798;28;20230;-66
2022/08/06 10:18:33;;;;;;;;;;;25.80;90.90;;;;;;5094164;28;20213;-66
2022/08/06 10:21:23;;;;;;;;;;;25.20;90.90;;;;;;5104837;28;20664;-66
2022/08/06 10:23:54;;;;;;;;;;;25.40;90.80;;;;;;5099705;28;20193;-65
2022/08/06 10:26:25;;;;;;;;;;;25.90;90.60;;;;;;5097586;28;20197;-66
2022/08/06 10:29:01;;;;;;;;;;;25.70;88.20;;;;;;5095247;28;20254;-65
2022/08/06 10:31:29;;;;;;;;;;;25.50;88.40;;;;;;5096933;28;20686;-65
2022/08/06 10:34:00;;;;;;;;;;;25.50;88.40;;;;;;5090134;28;20209;-65
2022/08/06 10:36:36;;;;;;;;;;;25.40;88.10;;;;;;5098206;28;20209;-66
2022/08/06 10:39:04;;;;;;;;;;;25.50;87.20;;;;;;5095151;28;20254;-65
2022/08/06 10:41:55;;;;;;;;;;;25.70;87.90;;;;;;5095065;28;20197;-65
2022/08/06 10:44:34;;;;;;;;;;;25.50;86.40;;;;;;5095937;28;20200;-65
2022/08/06 10:47:09;;;;;;;;;;;25.50;87.90;;;;;;5098031;28;20200;-64
2022/08/06 10:49:44;;;;;;;;;;;25.40;85.60;;;;;;5090526;28;20636;-65
2022/08/06 10:52:35;;;;;;;;;;;25.20;84.60;;;;;;5094176;28;20193;-65
2022/08/06 10:55:04;;;;;;;;;;;25.30;85.40;;;;;;5094778;28;20205;-66
2022/08/06 10:57:34;;;;;;;;;;;25.80;84.50;;;;;;5096525;28;20825;-65
2022/08/06 11:00:04;;;;;;;;;;;26.10;84.70;;;;;;5097992;28;20197;-65
2022/08/06 11:02:38;;;;;;;;;;;26.10;87.30;;;;;;5094510;28;20284;-65
2022/08/06 11:05:08;;;;;;;;;;;26.50;84.90;;;;;;5098340;28;20189;-65
2022/08/06 11:08:03;;;;;;;;;;;26.30;82.90;;;;;;5091050;28;20197;-65
2022/08/06 11:10:48;;;;;;;;;;;26.10;83.10;;;;;;5093351;28;20212;-65
2022/08/06 11:13:20;;;;;;;;;;;25.80;83.50;;;;;;5088779;28;20569;-65
2022/08/06 11:15:48;;;;;;;;;;;25.90;84.40;;;;;;5099337;28;20675;-65
2022/08/06 11:18:16;;;;;;;;;;;25.90;82.30;;;;;;5094581;28;20210;-65
2022/08/06 11:20:58;;;;;;;;;;;25.90;83.40;;;;;;5087992;28;20200;-65
2022/08/06 11:23:28;;;;;;;;;;;25.90;80.80;;;;;;5093140;28;20609;-65
2022/08/06 11:26:31;;;;;;;;;;;25.80;79.50;;;;;;5089631;28;20233;-65
2022/08/06 11:29:02;;;;;;;;;;;26.00;80.50;;;;;;5093521;28;20199;-65
2022/08/06 11:31:31;;;;;;;;;;;26.30;80.30;;;;;;5093813;28;20577;-64
2022/08/06 11:34:00;;;;;;;;;;;26.30;79.60;;;;;;5095269;28;20593;-65
2022/08/06 11:36:28;;;;;;;;;;;25.80;82.00;;;;;;5093546;28;20671;-65
2022/08/06 11:39:01;;;;;;;;;;;25.80;82.20;;;;;;5093797;28;20198;-65
2022/08/06 11:41:45;;;;;;;;;;;26.50;82.40;;;;;;5093441;28;20280;-64
2022/08/06 11:44:24;;;;;;;;;;;27.10;80.60;;;;;;5093685;28;20194;-65
2022/08/06 11:47:07;;;;;;;;;;;27.00;79.30;;;;;;5093672;28;20236;-66
2022/08/06 11:49:35;;;;;;;;;;;26.50;78.90;;;;;;5095379;28;20196;-64
2022/08/06 11:52:39;;;;;;;;;;;26.30;78.90;;;;;;5094879;28;20193;-66
2022/08/06 11:55:09;;;;;;;;;;;26.40;80.10;;;;;;5096428;28;20197;-66
2022/08/06 11:57:48;;;;;;;;;;;26.50;77.90;;;;;;5084272;28;20306;-65
2022/08/06 12:00:19;;;;;;;;;;;26.80;79.00;;;;;;5075771;28;20205;-66
2022/08/06 12:02:52;;;;;;;;;;;26.80;77.50;;;;;;5076778;28;20211;-66
2022/08/06 12:05:36;;;;;;;;;;;26.90;75.60;;;;;;5077871;28;20242;-65
2022/08/06 12:08:21;;;;;;;;;;;27.20;75.20;;;;;;5077897;28;20261;-66
2022/08/06 12:11:36;;;;;;;;;;;27.40;74.60;;;;;;5076511;28;20231;-67
2022/08/06 12:14:27;;;;;;;;;;;27.90;73.80;;;;;;5079329;28;20217;-68
2022/08/06 12:17:09;;;;;;;;;;;27.60;74.60;;;;;;5077266;28;20209;-66
2022/08/06 12:19:42;;;;;;;;;;;27.30;74.20;;;;;;5076884;28;21002;-66
2022/08/06 12:22:29;;;;;;;;;;;27.40;71.00;;;;;;5076191;28;20600;-66
2022/08/06 12:24:59;;;;;;;;;;;27.40;73.30;;;;;;5078361;28;20197;-65
2022/08/06 12:27:40;;;;;;;;;;;28.00;73.00;;;;;;5077805;28;20201;-66
2022/08/06 12:30:22;;;;;;;;;;;28.80;72.00;;;;;;5074722;28;21544;-66
2022/08/06 12:33:05;;;;;;;;;;;28.00;71.00;;;;;;5076510;28;20530;-67
2022/08/06 12:35:48;;;;;;;;;;;28.50;70.20;;;;;;5078624;28;20192;-68
2022/08/06 12:38:17;;;;;;;;;;;27.80;69.90;;;;;;5076687;28;20211;-66
2022/08/06 12:40:55;;;;;;;;;;;27.30;70.60;;;;;;5075393;28;20945;-66
2022/08/06 12:43:24;;;;;;;;;;;27.30;72.30;;;;;;5076984;28;20310;-65
2022/08/06 12:46:15;;;;;;;;;;;27.50;72.00;;;;;;5075983;28;21010;-67
2022/08/06 12:48:48;;;;;;;;;;;28.30;71.10;;;;;;5076548;28;20201;-66
2022/08/06 12:51:16;;;;;;;;;;;27.90;70.70;;;;;;5076096;28;20204;-66
2022/08/06 12:53:53;;;;;;;;;;;27.90;70.30;;;;;;5080027;28;20198;-66
2022/08/06 12:56:22;;;;;;;;;;;27.80;70.00;;;;;;5076901;28;20213;-66
2022/08/06 12:58:59;;;;;;;;;;;27.70;69.60;;;;;;5076701;28;20222;-66
2022/08/06 13:01:29;;;;;;;;;;;27.50;70.00;;;;;;5075392;28;20206;-66
2022/08/06 13:04:19;;;;;;;;;;;27.60;69.90;;;;;;5076685;28;20212;-66
2022/08/06 13:06:48;;;;;;;;;;;27.70;70.30;;;;;;5076567;28;20212;-66
2022/08/06 13:09:19;;;;;;;;;;;27.90;69.40;;;;;;5075688;28;20216;-66
2022/08/06 13:11:48;;;;;;;;;;;28.10;69.90;;;;;;5073990;28;20240;-66
2022/08/06 13:14:19;;;;;;;;;;;28.60;68.50;;;;;;5077989;28;20197;-66
2022/08/06 13:16:49;;;;;;;;;;;28.90;69.30;;;;;;5075163;28;20279;-66
2022/08/06 13:19:23;;;;;;;;;;;28.90;69.00;;;;;;5076341;28;20208;-66
2022/08/06 13:22:07;;;;;;;;;;;29.00;68.40;;;;;;5074038;28;20193;-67
2022/08/06 13:24:36;;;;;;;;;;;29.10;66.90;;;;;;5077680;28;20205;-66
2022/08/06 13:27:31;;;;;;;;;;;28.80;69.80;;;;;;5074079;28;20294;-67
2022/08/06 13:30:03;;;;;;;;;;;29.20;69.10;;;;;;5076438;28;20215;-66
2022/08/06 13:32:53;;;;;;;;;;;29.10;69.00;;;;;;5074920;28;20802;-65
2022/08/06 13:35:26;;;;;;;;;;;29.00;67.70;;;;;;5075198;28;20626;-69
2022/08/06 13:37:57;;;;;;;;;;;28.60;68.00;;;;;;5074294;28;20296;-66
2022/08/06 13:40:44;;;;;;;;;;;28.40;68.20;;;;;;5074356;28;20569;-66
2022/08/06 13:43:18;;;;;;;;;;;28.40;69.30;;;;;;5075844;28;20254;-65
2022/08/06 13:46:07;;;;;;;;;;;28.60;68.40;;;;;;5077242;28;20306;-65
2022/08/06 13:48:46;;;;;;;;;;;28.40;67.40;;;;;;5075428;28;20201;-65
2022/08/06 13:51:16;;;;;;;;;;;28.40;68.50;;;;;;5072771;28;20627;-68
2022/08/06 13:53:54;;;;;;;;;;;28.40;68.50;;;;;;5077047;28;20738;-66
2022/08/06 13:56:24;;;;;;;;;;;28.60;67.80;;;;;;5079750;28;20288;-68
2022/08/06 13:58:57;;;;;;;;;;;28.80;67.30;;;;;;5078999;28;20234;-65
2022/08/06 14:01:24;;;;;;;;;;;28.60;67.30;;;;;;5073797;28;20616;-65
2022/08/06 14:04:12;;;;;;;;;;;28.60;67.20;;;;;;5060516;23;20210;-66
2022/08/06 14:06:40;;;;;;;;;;;28.30;66.90;;;;;;5019091;28;20317;-65
2022/08/06 14:09:14;;;;;;;;;;;28.30;66.30;;;;;;5017837;28;20199;-65
2022/08/06 14:11:50;;;;;;;;;;;28.10;66.10;;;;;;5020791;28;20286;-65
2022/08/06 14:14:21;;;;;;;;;;;28.00;66.50;;;;;;5025743;28;20293;-65
2022/08/06 14:16:51;;;;;;;;;;;28.20;66.80;;;;;;5032422;28;20195;-66
2022/08/06 14:19:21;;;;;;;;;;;28.50;66.90;;;;;;5033974;28;20539;-65
2022/08/06 14:22:09;;;;;;;;;;;28.30;65.60;;;;;;5028442;28;20199;-64
2022/08/06 14:24:37;;;;;;;;;;;28.80;65.90;;;;;;5030977;28;20650;-65
2022/08/06 14:27:07;;;;;;;;;;;29.00;65.00;;;;;;5034393;28;20201;-65
2022/08/06 14:29:43;;;;;;;;;;;28.80;66.00;;;;;;5033765;28;20294;-65
2022/08/06 14:32:31;;;;;;;;;;;28.70;65.70;;;;;;5029837;28;20230;-65
2022/08/06 14:35:01;;;;;;;;;;;28.50;64.70;;;;;;5033546;28;20199;-65
2022/08/06 14:37:31;;;;;;;;;;;28.50;65.50;;;;;;5035102;28;20261;-65
2022/08/06 14:44:54;;;;;;;;;;;28.30;65.40;;;;;;5035023;28;20203;-65
2022/08/06 14:46:25;;;;;;;;;;;28.10;65.90;;;;;;5035417;28;20241;-65
2022/08/06 14:48:54;;;;;;;;;;;28.40;65.60;;;;;;5038131;28;20195;-66
2022/08/06 14:51:27;;;;;;;;;;;28.30;65.20;;;;;;5036679;28;20218;-65
2022/08/06 14:54:15;;;;;;;;;;;28.30;64.00;;;;;;5039629;28;20248;-65
2022/08/06 14:56:45;;;;;;;;;;;27.70;64.70;;;;;;5037113;28;20191;-65
2022/08/06 14:59:22;;;;;;;;;;;27.40;65.60;;;;;;5027498;28;20230;-65
2022/08/06 15:01:50;;;;;;;;;;;27.80;65.40;;;;;;5037551;28;20610;-65
2022/08/06 15:04:18;;;;;;;;;;;28.00;65.20;;;;;;5039469;28;20213;-66
2022/08/06 15:06:54;;;;;;;;;;;28.20;65.60;;;;;;5037962;28;20190;-65
2022/08/06 15:09:26;;;;;;;;;;;28.30;64.20;;;;;;5034143;28;20231;-65
2022/08/06 15:12:14;;;;;;;;;;;28.10;64.10;;;;;;5033105;28;20187;-66
2022/08/06 15:15:02;;;;;;;;;;;27.50;63.70;;;;;;5030195;28;20244;-66
2022/08/06 15:17:32;;;;;;;;;;;27.60;64.30;;;;;;5033643;28;20195;-65